»·PEaware :: N508JP KDTA-KBOI

N508JP :: KDTA-KBOI

FLIGHT INFORMATION

Flight Status: Arrived
Operator: Privately registered:
United States
More flights under this callsign
Pilot: Chase C. (10526)
Aircraft: ECLIPSE 500
(EA50)
More flights by this aircraft type
Origin: KDTA Delta Mun
United States
Destination: KBOI Boise Air Terminal/Gowen
United States
More flights between these airports :: More routes between these airports
Route: +DTA V257 RIDEN V484 TWF BROPH SPUUD3
File this flight plan on PilotEdge
Remarks:
Altitude:
(Current/Filed)
28,000ft
Speed:
(Current/Filed)
330kts
Departed: 21-Jun-18 08:38 AM
Arrived: 21-Jun-18 09:50 AM
Distance/Time
Traveled:
302nm/1:12
Distance/Time
To Go:
Arrived

Flight Plot

Page will automatically refresh every two minutes.

Flight plan parsing failed; only flown route is shown


Map Options




Map Legend


Flown Route
Filed Route
Departure Airport
Arrival Airport
Navaid (VOR, NDB)
Fix

Horizontal Profiles

Position Reports

Time Latitude Longitude Heading Altitude Ground
Speed
21-Jun-18 08:16 39.385552 -112.511934 226 4756ft 0kts
21-Jun-18 08:17 39.385552 -112.511934 226 4756ft 0kts
21-Jun-18 08:18 39.385552 -112.511934 226 4756ft 0kts
21-Jun-18 08:19 39.385552 -112.511934 226 4756ft 0kts
21-Jun-18 08:20 39.385552 -112.511934 226 4756ft 0kts
21-Jun-18 08:21 39.385552 -112.511934 226 4756ft 0kts
21-Jun-18 08:22 39.385552 -112.511934 226 4756ft 0kts
21-Jun-18 08:23 39.385552 -112.511934 226 4756ft 0kts
21-Jun-18 08:24 39.385552 -112.511934 226 4756ft 0kts
21-Jun-18 08:25 39.385552 -112.511934 226 4756ft 0kts
21-Jun-18 08:26 39.385552 -112.511934 226 4756ft 0kts
21-Jun-18 08:27 39.385552 -112.511934 226 4756ft 0kts
21-Jun-18 08:28 39.385552 -112.511934 226 4756ft 0kts
21-Jun-18 08:29 39.385552 -112.511934 226 4756ft 0kts
21-Jun-18 08:30 39.385552 -112.511934 226 4756ft 0kts
21-Jun-18 08:31 39.385552 -112.511934 226 4756ft 0kts
21-Jun-18 08:32 39.385552 -112.511934 226 4756ft 0kts
21-Jun-18 08:33 39.385552 -112.511934 226 4756ft 0kts
21-Jun-18 08:34 39.385552 -112.511934 226 4756ft 0kts
21-Jun-18 08:35 39.384792 -112.510440 45 4757ft 16kts
21-Jun-18 08:36 39.389076 -112.504814 45 4757ft 31kts
21-Jun-18 08:37 39.389928 -112.502177 179 4757ft 38kts
21-Jun-18 08:38 39.356780 -112.501346 180 5594ft 170kts
21-Jun-18 08:39 39.310389 -112.514997 242 7871ft 193kts
21-Jun-18 08:40 39.347260 -112.542469 11 10208ft 229kts
21-Jun-18 08:41 39.407933 -112.523163 8 12385ft 238kts
21-Jun-18 08:42 39.471499 -112.505025 6 14372ft 247kts
21-Jun-18 08:43 39.538546 -112.486743 5 16244ft 256kts
21-Jun-18 08:44 39.606182 -112.478145 356 17949ft 260kts
21-Jun-18 08:45 39.674550 -112.471829 355 19513ft 266kts
21-Jun-18 08:46 39.743317 -112.465536 354 20954ft 272kts
21-Jun-18 08:47 39.812085 -112.459256 353 22269ft 278kts
21-Jun-18 08:48 39.880483 -112.453018 352 23480ft 282kts
21-Jun-18 08:49 39.949834 -112.446691 352 24610ft 287kts
21-Jun-18 08:50 40.020894 -112.440187 351 25699ft 291kts
21-Jun-18 08:51 40.091651 -112.433687 351 26692ft 295kts
21-Jun-18 08:52 40.168639 -112.426599 350 27662ft 299kts
21-Jun-18 08:53 40.248810 -112.419323 351 28130ft 320kts
21-Jun-18 08:54 40.333825 -112.411510 352 28127ft 347kts
21-Jun-18 08:55 40.426682 -112.409232 346 28127ft 358kts
21-Jun-18 08:56 40.525707 -112.412704 347 28127ft 371kts
21-Jun-18 08:57 40.628136 -112.415249 348 28127ft 380kts
21-Jun-18 08:58 40.732973 -112.417641 348 28128ft 385kts
21-Jun-18 08:59 40.838677 -112.419986 348 28128ft 388kts
21-Jun-18 09:00 40.944768 -112.422365 348 28129ft 390kts
21-Jun-18 09:01 41.050443 -112.424776 348 28132ft 391kts
21-Jun-18 09:02 41.134235 -112.434581 323 28121ft 362kts
21-Jun-18 09:03 41.215657 -112.531581 304 28128ft 342kts
21-Jun-18 09:04 41.278762 -112.622500 302 28130ft 340kts
21-Jun-18 09:05 41.341057 -112.715584 302 28130ft 340kts
21-Jun-18 09:06 41.399334 -112.803611 302 28130ft 339kts
21-Jun-18 09:07 41.458592 -112.893599 302 28129ft 340kts
21-Jun-18 09:08 41.517645 -112.983579 302 28128ft 340kts
21-Jun-18 09:09 41.576692 -113.073810 302 28127ft 339kts
21-Jun-18 09:10 41.634719 -113.162797 302 27892ft 345kts
21-Jun-18 09:11 41.685518 -113.240931 303 27254ft 357kts
21-Jun-18 09:12 41.746291 -113.334620 303 26504ft 363kts
21-Jun-18 09:13 41.808263 -113.430419 303 25726ft 357kts
21-Jun-18 09:14 41.870914 -113.527633 303 24924ft 354kts
21-Jun-18 09:15 41.929865 -113.619395 304 24180ft 352kts
21-Jun-18 09:16 41.988295 -113.710594 303 24141ft 346kts
21-Jun-18 09:17 42.045410 -113.800002 302 24141ft 331kts
21-Jun-18 09:18 42.104053 -113.892209 303 24139ft 336kts
21-Jun-18 09:19 42.164164 -113.986947 303 24136ft 340kts
21-Jun-18 09:20 42.223229 -114.080315 303 24140ft 341kts
21-Jun-18 09:21 42.281726 -114.173072 303 24146ft 342kts
21-Jun-18 09:22 42.342506 -114.269734 303 24152ft 342kts
21-Jun-18 09:23 42.399297 -114.360380 303 24149ft 341kts
21-Jun-18 09:24 42.456605 -114.452117 303 24150ft 340kts
21-Jun-18 09:25 42.513949 -114.543664 303 24150ft 341kts
21-Jun-18 09:26 42.570540 -114.633989 303 24149ft 342kts
21-Jun-18 09:27 42.628044 -114.726038 302 24159ft 342kts
21-Jun-18 09:28 42.686946 -114.820607 302 24158ft 342kts
21-Jun-18 09:29 42.747623 -114.913372 306 23837ft 353kts
21-Jun-18 09:30 42.812452 -115.006802 306 23244ft 357kts
21-Jun-18 09:31 42.870971 -115.091144 306 22486ft 323kts
21-Jun-18 09:32 42.929924 -115.176502 307 22124ft 327kts
21-Jun-18 09:33 42.988753 -115.261778 308 22086ft 333kts
21-Jun-18 09:34 43.049667 -115.350395 309 21779ft 335kts
21-Jun-18 09:35 43.111685 -115.440838 309 21675ft 334kts
21-Jun-18 09:36 43.171659 -115.528525 309 21559ft 334kts
21-Jun-18 09:37 43.250371 -115.567386 348 21059ft 353kts
21-Jun-18 09:38 43.332337 -115.602158 342 20878ft 346kts
21-Jun-18 09:39 43.400852 -115.664304 303 18939ft 324kts
21-Jun-18 09:40 43.431435 -115.748373 282 16557ft 255kts
21-Jun-18 09:41 43.447133 -115.828257 282 13896ft 239kts
21-Jun-18 09:42 43.461762 -115.902913 284 11340ft 231kts
21-Jun-18 09:43 43.479598 -115.969847 293 9119ft 219kts
21-Jun-18 09:44 43.495890 -116.017235 293 7599ft 197kts
21-Jun-18 09:45 43.513994 -116.072174 294 5866ft 181kts
21-Jun-18 09:46 43.528501 -116.114984 295 4743ft 136kts
21-Jun-18 09:47 43.539849 -116.148555 298 3909ft 114kts
21-Jun-18 09:48 43.551602 -116.182668 297 3297ft 107kts
21-Jun-18 09:49 43.561117 -116.209978 297 2857ft 64kts
21-Jun-18 09:50 43.564443 -116.216828 336 2851ft 2kts
21-Jun-18 09:51 43.565924 -116.220779 291 2847ft 24kts
21-Jun-18 09:52 43.568373 -116.228026 302 2838ft 12kts
21-Jun-18 09:53 43.569591 -116.228427 208 2837ft 1kts
21-Jun-18 09:54 43.569474 -116.228465 185 2837ft 0kts
21-Jun-18 09:55 43.569474 -116.228465 185 2837ft 0kts
21-Jun-18 09:56 43.569474 -116.228465 185 2837ft 0kts
21-Jun-18 09:57 43.569505 -116.228373 2 2837ft 0kts
21-Jun-18 09:58 43.569505 -116.228373 2 2837ft 0kts

Navigation Log

Ident Type
Flight plan parsing failed, navigation log unavailable